首页
METAR-TAF:

METAR-TAF

机场 :

Big Piney / Marbleton, 怀俄明州, 美国

纬度: 42-34-44N, 经度: 110-06-11W, 海拔: 2126米

当前天气观测

该预报发布于46分钟前的14:53 UTC
风速4节,风向东转东北
温度 -27°C
湿度 83%
气压 1010 hPa
能見度: 16.1公里
天空无云

METAR: KBPI 151453Z AUTO 07004KT 10SM CLR M27/M29 A2982 RMK AO2 SLP210 T12671289 53001

时间: 08:39 (15:39 UTC)

预报

该预报发布于4小时和15分钟前的11:24 UTC
预报有效从15日的 12点(UTC)到 16日的 12点(UTC)
风速5节,风向多变
能見度: 10公里
散云层高于15000英尺
从 15日的 1900点(UTC)
风速5节,风向多变
能見度: 10公里
散云层高于4000英尺
从 16日的 0600点(UTC)
风速4节,风向多变
能見度: 10公里
少量云层高于20000英尺

TAF: KBPI 151124Z 1512/1612 VRB05KT P6SM SCT150 FM151900 VRB05KT P6SM SCT040 FM160600 VRB04KT P6SM FEW200

超过4000个机场的气象观测和天气预报(METAR&TAF报告)。

可查询的气象台以黄色和红色小点在地图上表示。

将鼠标移到小点上方,可查看气象台名称。

然后点击查看天气观测和预报。

如需切换地图:点击带黑十字的绿色按钮放大地图;点击带横线的绿色按钮缩小地图;或者点击绿色箭头查看邻近地区的地图。


METAR-TAF: